sensor_id;sensor_type;location;lat;lon;timestamp;temperature;humidity
5258;DHT22;2651;51.594;9.928;2023-12-29T00:00:42;8.90;1.00
5258;DHT22;2651;51.594;9.928;2023-12-29T00:01:44;8.80;1.00
5258;DHT22;2651;51.594;9.928;2023-12-29T00:02:46;8.80;1.00
5258;DHT22;2651;51.594;9.928;2023-12-29T00:03:47;8.80;1.00
5258;DHT22;2651;51.594;9.928;2023-12-29T00:04:49;8.80;1.00
5258;DHT22;2651;51.594;9.928;2023-12-29T00:05:51;8.80;1.00
5258;DHT22;2651;51.594;9.928;2023-12-29T00:06:53;8.80;1.00
5258;DHT22;2651;51.594;9.928;2023-12-29T00:08:04;8.80;1.00
5258;DHT22;2651;51.594;9.928;2023-12-29T00:09:05;8.80;1.00
5258;DHT22;2651;51.594;9.928;2023-12-29T00:10:09;8.80;1.00
5258;DHT22;2651;51.594;9.928;2023-12-29T00:11:21;8.80;1.00
5258;DHT22;2651;51.594;9.928;2023-12-29T00:12:23;8.80;1.00
5258;DHT22;2651;51.594;9.928;2023-12-29T00:13:25;8.80;1.00
5258;DHT22;2651;51.594;9.928;2023-12-29T00:14:26;8.80;1.00
5258;DHT22;2651;51.594;9.928;2023-12-29T00:15:28;8.70;1.00
5258;DHT22;2651;51.594;9.928;2023-12-29T00:16:30;8.70;1.00
5258;DHT22;2651;51.594;9.928;2023-12-29T00:17:32;8.70;1.00
5258;DHT22;2651;51.594;9.928;2023-12-29T00:18:34;8.70;1.00
5258;DHT22;2651;51.594;9.928;2023-12-29T00:19:38;8.70;1.00
5258;DHT22;2651;51.594;9.928;2023-12-29T00:20:40;8.70;1.00
5258;DHT22;2651;51.594;9.928;2023-12-29T00:21:43;8.80;1.00
5258;DHT22;2651;51.594;9.928;2023-12-29T00:22:44;8.70;1.00
5258;DHT22;2651;51.594;9.928;2023-12-29T00:23:46;8.70;1.00
5258;DHT22;2651;51.594;9.928;2023-12-29T00:24:48;8.70;1.00
5258;DHT22;2651;51.594;9.928;2023-12-29T00:25:49;8.70;1.00
5258;DHT22;2651;51.594;9.928;2023-12-29T00:26:51;8.70;1.00
5258;DHT22;2651;51.594;9.928;2023-12-29T00:27:53;8.70;1.00
5258;DHT22;2651;51.594;9.928;2023-12-29T00:28:55;8.70;1.00
5258;DHT22;2651;51.594;9.928;2023-12-29T00:29:56;8.70;1.00
5258;DHT22;2651;51.594;9.928;2023-12-29T00:30:58;8.60;1.00
5258;DHT22;2651;51.594;9.928;2023-12-29T00:32:04;8.70;1.00
5258;DHT22;2651;51.594;9.928;2023-12-29T00:33:06;8.70;1.00
5258;DHT22;2651;51.594;9.928;2023-12-29T00:34:08;8.70;1.00
5258;DHT22;2651;51.594;9.928;2023-12-29T00:35:10;8.60;1.00
5258;DHT22;2651;51.594;9.928;2023-12-29T00:36:16;8.70;1.00
5258;DHT22;2651;51.594;9.928;2023-12-29T00:37:17;8.70;1.00
5258;DHT22;2651;51.594;9.928;2023-12-29T00:38:19;8.70;1.00
5258;DHT22;2651;51.594;9.928;2023-12-29T00:39:21;8.70;1.00
5258;DHT22;2651;51.594;9.928;2023-12-29T00:40:30;8.70;1.00
5258;DHT22;2651;51.594;9.928;2023-12-29T00:41:32;8.70;1.00
5258;DHT22;2651;51.594;9.928;2023-12-29T00:42:34;8.60;1.00
5258;DHT22;2651;51.594;9.928;2023-12-29T00:43:36;8.60;1.00
5258;DHT22;2651;51.594;9.928;2023-12-29T00:44:37;8.70;1.00
5258;DHT22;2651;51.594;9.928;2023-12-29T00:45:39;8.60;1.00
5258;DHT22;2651;51.594;9.928;2023-12-29T00:46:41;8.70;1.00
5258;DHT22;2651;51.594;9.928;2023-12-29T00:47:42;8.70;1.00
5258;DHT22;2651;51.594;9.928;2023-12-29T00:48:44;8.70;1.00
5258;DHT22;2651;51.594;9.928;2023-12-29T00:49:46;8.70;1.00
5258;DHT22;2651;51.594;9.928;2023-12-29T00:50:47;8.70;1.00
5258;DHT22;2651;51.594;9.928;2023-12-29T00:51:49;8.70;1.00
5258;DHT22;2651;51.594;9.928;2023-12-29T00:52:51;8.70;1.00
5258;DHT22;2651;51.594;9.928;2023-12-29T00:53:52;8.70;1.00
5258;DHT22;2651;51.594;9.928;2023-12-29T00:54:54;8.70;1.00
5258;DHT22;2651;51.594;9.928;2023-12-29T00:55:56;8.70;1.00
5258;DHT22;2651;51.594;9.928;2023-12-29T00:56:58;8.80;1.00
5258;DHT22;2651;51.594;9.928;2023-12-29T00:57:59;8.80;1.00
5258;DHT22;2651;51.594;9.928;2023-12-29T00:59:01;8.80;1.00
5258;DHT22;2651;51.594;9.928;2023-12-29T01:00:03;8.80;1.00
5258;DHT22;2651;51.594;9.928;2023-12-29T01:01:07;8.80;1.00
5258;DHT22;2651;51.594;9.928;2023-12-29T01:02:10;8.80;1.00
5258;DHT22;2651;51.594;9.928;2023-12-29T01:03:12;8.80;1.00
5258;DHT22;2651;51.594;9.928;2023-12-29T01:04:14;8.80;1.00
5258;DHT22;2651;51.594;9.928;2023-12-29T01:05:16;8.70;1.00
5258;DHT22;2651;51.594;9.928;2023-12-29T01:06:23;8.80;1.00
5258;DHT22;2651;51.594;9.928;2023-12-29T01:07:24;8.80;1.00
5258;DHT22;2651;51.594;9.928;2023-12-29T01:08:26;8.70;1.00
5258;DHT22;2651;51.594;9.928;2023-12-29T01:09:28;8.80;1.00
5258;DHT22;2651;51.594;9.928;2023-12-29T01:10:29;8.80;1.00
5258;DHT22;2651;51.594;9.928;2023-12-29T01:11:31;8.80;1.00
5258;DHT22;2651;51.594;9.928;2023-12-29T01:12:33;8.90;1.00
5258;DHT22;2651;51.594;9.928;2023-12-29T01:13:34;8.90;1.00
5258;DHT22;2651;51.594;9.928;2023-12-29T01:14:36;8.90;1.00
5258;DHT22;2651;51.594;9.928;2023-12-29T01:15:38;8.90;1.00
5258;DHT22;2651;51.594;9.928;2023-12-29T01:16:42;8.90;1.00
5258;DHT22;2651;51.594;9.928;2023-12-29T01:17:43;8.90;1.00
5258;DHT22;2651;51.594;9.928;2023-12-29T01:18:46;8.90;1.00
5258;DHT22;2651;51.594;9.928;2023-12-29T01:19:47;8.90;1.00
5258;DHT22;2651;51.594;9.928;2023-12-29T01:20:49;9.00;1.00
5258;DHT22;2651;51.594;9.928;2023-12-29T01:21:51;9.00;1.00
5258;DHT22;2651;51.594;9.928;2023-12-29T01:22:53;9.00;1.00
5258;DHT22;2651;51.594;9.928;2023-12-29T01:23:54;8.90;1.00
5258;DHT22;2651;51.594;9.928;2023-12-29T01:24:58;9.00;1.00
5258;DHT22;2651;51.594;9.928;2023-12-29T01:26:00;9.00;1.00
5258;DHT22;2651;51.594;9.928;2023-12-29T01:27:01;9.00;1.00
5258;DHT22;2651;51.594;9.928;2023-12-29T01:28:05;9.00;1.00
5258;DHT22;2651;51.594;9.928;2023-12-29T01:29:07;9.00;1.00
5258;DHT22;2651;51.594;9.928;2023-12-29T01:30:09;9.00;1.00
5258;DHT22;2651;51.594;9.928;2023-12-29T01:31:11;9.00;1.00
5258;DHT22;2651;51.594;9.928;2023-12-29T01:32:15;9.00;1.00
5258;DHT22;2651;51.594;9.928;2023-12-29T01:33:16;9.00;1.00
5258;DHT22;2651;51.594;9.928;2023-12-29T01:34:18;9.00;1.00
5258;DHT22;2651;51.594;9.928;2023-12-29T01:35:20;9.00;1.00
5258;DHT22;2651;51.594;9.928;2023-12-29T01:36:22;8.90;1.00
5258;DHT22;2651;51.594;9.928;2023-12-29T01:37:26;8.90;1.00
5258;DHT22;2651;51.594;9.928;2023-12-29T01:38:27;8.90;1.00
5258;DHT22;2651;51.594;9.928;2023-12-29T01:39:30;8.90;1.00
5258;DHT22;2651;51.594;9.928;2023-12-29T01:40:31;8.90;1.00
5258;DHT22;2651;51.594;9.928;2023-12-29T01:41:33;8.90;1.00
5258;DHT22;2651;51.594;9.928;2023-12-29T01:42:35;8.90;1.00
5258;DHT22;2651;51.594;9.928;2023-12-29T01:44:58;9.00;1.00
5258;DHT22;2651;51.594;9.928;2023-12-29T01:46:00;8.90;8.80
5258;DHT22;2651;51.594;9.928;2023-12-29T01:47:05;8.90;47.60
5258;DHT22;2651;51.594;9.928;2023-12-29T01:48:11;8.90;99.90
5258;DHT22;2651;51.594;9.928;2023-12-29T01:49:17;8.90;99.90
5258;DHT22;2651;51.594;9.928;2023-12-29T01:50:21;8.90;99.90
5258;DHT22;2651;51.594;9.928;2023-12-29T01:51:26;9.00;67.20
5258;DHT22;2651;51.594;9.928;2023-12-29T01:52:28;9.00;82.70
5258;DHT22;2651;51.594;9.928;2023-12-29T01:53:30;9.00;65.50
5258;DHT22;2651;51.594;9.928;2023-12-29T01:54:47;9.00;9.40
5258;DHT22;2651;51.594;9.928;2023-12-29T01:55:50;9.00;1.00
5258;DHT22;2651;51.594;9.928;2023-12-29T01:56:54;9.00;1.00
5258;DHT22;2651;51.594;9.928;2023-12-29T01:57:59;9.00;1.00
5258;DHT22;2651;51.594;9.928;2023-12-29T01:59:01;9.00;1.00
5258;DHT22;2651;51.594;9.928;2023-12-29T02:00:12;9.00;1.00
5258;DHT22;2651;51.594;9.928;2023-12-29T02:01:14;9.00;1.00
5258;DHT22;2651;51.594;9.928;2023-12-29T02:02:16;9.00;12.60
5258;DHT22;2651;51.594;9.928;2023-12-29T02:03:18;9.00;1.00
5258;DHT22;2651;51.594;9.928;2023-12-29T02:04:20;9.00;1.00
5258;DHT22;2651;51.594;9.928;2023-12-29T02:05:23;9.00;1.00
5258;DHT22;2651;51.594;9.928;2023-12-29T02:06:27;9.00;1.00
5258;DHT22;2651;51.594;9.928;2023-12-29T02:07:29;9.00;1.00
5258;DHT22;2651;51.594;9.928;2023-12-29T02:08:32;9.00;1.00
5258;DHT22;2651;51.594;9.928;2023-12-29T02:09:34;9.00;1.00
5258;DHT22;2651;51.594;9.928;2023-12-29T02:10:37;9.00;1.00
5258;DHT22;2651;51.594;9.928;2023-12-29T02:11:39;9.00;1.00
5258;DHT22;2651;51.594;9.928;2023-12-29T02:12:41;9.00;1.00
5258;DHT22;2651;51.594;9.928;2023-12-29T02:13:43;9.10;1.00
5258;DHT22;2651;51.594;9.928;2023-12-29T02:14:44;9.10;1.00
5258;DHT22;2651;51.594;9.928;2023-12-29T02:15:47;9.10;1.00
5258;DHT22;2651;51.594;9.928;2023-12-29T02:18:16;9.20;1.00
5258;DHT22;2651;51.594;9.928;2023-12-29T02:20:29;9.20;1.00
5258;DHT22;2651;51.594;9.928;2023-12-29T02:21:31;9.20;1.00
5258;DHT22;2651;51.594;9.928;2023-12-29T02:22:33;9.20;1.00
5258;DHT22;2651;51.594;9.928;2023-12-29T02:23:34;9.10;1.00
5258;DHT22;2651;51.594;9.928;2023-12-29T02:24:37;9.20;1.00
5258;DHT22;2651;51.594;9.928;2023-12-29T02:25:39;9.20;1.00
5258;DHT22;2651;51.594;9.928;2023-12-29T02:26:44;9.20;1.00
5258;DHT22;2651;51.594;9.928;2023-12-29T02:28:04;9.20;1.00
5258;DHT22;2651;51.594;9.928;2023-12-29T02:29:10;9.20;1.00
5258;DHT22;2651;51.594;9.928;2023-12-29T02:31:20;9.20;1.00
5258;DHT22;2651;51.594;9.928;2023-12-29T02:32:25;9.20;1.00
5258;DHT22;2651;51.594;9.928;2023-12-29T02:33:31;9.20;1.00
5258;DHT22;2651;51.594;9.928;2023-12-29T02:34:35;9.20;1.00
5258;DHT22;2651;51.594;9.928;2023-12-29T02:35:41;9.20;1.00
5258;DHT22;2651;51.594;9.928;2023-12-29T02:36:44;9.20;1.00
5258;DHT22;2651;51.594;9.928;2023-12-29T02:37:47;9.20;1.00
5258;DHT22;2651;51.594;9.928;2023-12-29T02:38:49;9.20;1.00
5258;DHT22;2651;51.594;9.928;2023-12-29T02:39:51;9.20;1.00
5258;DHT22;2651;51.594;9.928;2023-12-29T02:40:55;9.20;1.00
5258;DHT22;2651;51.594;9.928;2023-12-29T02:41:57;9.20;1.00
5258;DHT22;2651;51.594;9.928;2023-12-29T02:42:59;9.20;1.00
5258;DHT22;2651;51.594;9.928;2023-12-29T02:44:01;9.20;1.00
5258;DHT22;2651;51.594;9.928;2023-12-29T02:45:03;9.20;1.00
5258;DHT22;2651;51.594;9.928;2023-12-29T02:46:04;9.20;1.00
5258;DHT22;2651;51.594;9.928;2023-12-29T02:47:06;9.20;1.00
5258;DHT22;2651;51.594;9.928;2023-12-29T02:48:08;9.20;1.00
5258;DHT22;2651;51.594;9.928;2023-12-29T02:49:10;9.20;1.00
5258;DHT22;2651;51.594;9.928;2023-12-29T02:50:14;9.20;1.00
5258;DHT22;2651;51.594;9.928;2023-12-29T02:51:16;9.20;1.00
5258;DHT22;2651;51.594;9.928;2023-12-29T02:52:17;9.20;1.00
5258;DHT22;2651;51.594;9.928;2023-12-29T02:53:19;9.20;1.00
5258;DHT22;2651;51.594;9.928;2023-12-29T02:54:21;9.20;1.00
5258;DHT22;2651;51.594;9.928;2023-12-29T02:55:23;9.20;1.00
5258;DHT22;2651;51.594;9.928;2023-12-29T02:56:25;9.20;1.00
5258;DHT22;2651;51.594;9.928;2023-12-29T02:57:26;9.20;1.00
5258;DHT22;2651;51.594;9.928;2023-12-29T02:58:28;9.20;1.00
5258;DHT22;2651;51.594;9.928;2023-12-29T02:59:30;9.10;1.00
5258;DHT22;2651;51.594;9.928;2023-12-29T03:00:31;9.20;1.00
5258;DHT22;2651;51.594;9.928;2023-12-29T03:01:33;9.20;1.00
5258;DHT22;2651;51.594;9.928;2023-12-29T03:02:35;9.20;1.00
5258;DHT22;2651;51.594;9.928;2023-12-29T03:03:37;9.20;1.00
5258;DHT22;2651;51.594;9.928;2023-12-29T03:04:41;9.20;1.00
5258;DHT22;2651;51.594;9.928;2023-12-29T03:05:43;9.20;1.00
5258;DHT22;2651;51.594;9.928;2023-12-29T03:06:45;9.20;1.00
5258;DHT22;2651;51.594;9.928;2023-12-29T03:07:46;9.20;1.00
5258;DHT22;2651;51.594;9.928;2023-12-29T03:08:48;9.20;1.00
5258;DHT22;2651;51.594;9.928;2023-12-29T03:09:50;9.20;1.00
5258;DHT22;2651;51.594;9.928;2023-12-29T03:10:51;9.20;1.00
5258;DHT22;2651;51.594;9.928;2023-12-29T03:11:53;9.20;1.00
5258;DHT22;2651;51.594;9.928;2023-12-29T03:12:55;9.20;1.00
5258;DHT22;2651;51.594;9.928;2023-12-29T03:13:56;9.20;1.00
5258;DHT22;2651;51.594;9.928;2023-12-29T03:14:58;9.10;1.00
5258;DHT22;2651;51.594;9.928;2023-12-29T03:16:00;9.20;1.00
5258;DHT22;2651;51.594;9.928;2023-12-29T03:17:02;9.20;1.00
5258;DHT22;2651;51.594;9.928;2023-12-29T03:18:04;9.20;1.00
5258;DHT22;2651;51.594;9.928;2023-12-29T03:19:07;9.20;1.00
5258;DHT22;2651;51.594;9.928;2023-12-29T03:20:09;9.10;1.00
5258;DHT22;2651;51.594;9.928;2023-12-29T03:21:11;9.10;1.00
5258;DHT22;2651;51.594;9.928;2023-12-29T03:22:13;9.10;1.00
5258;DHT22;2651;51.594;9.928;2023-12-29T03:23:15;9.20;1.00
5258;DHT22;2651;51.594;9.928;2023-12-29T03:24:17;9.10;1.00
5258;DHT22;2651;51.594;9.928;2023-12-29T03:25:18;9.10;1.00
5258;DHT22;2651;51.594;9.928;2023-12-29T03:26:20;9.10;1.00
5258;DHT22;2651;51.594;9.928;2023-12-29T03:27:22;9.10;1.00
5258;DHT22;2651;51.594;9.928;2023-12-29T03:28:23;9.10;1.00
5258;DHT22;2651;51.594;9.928;2023-12-29T03:29:25;9.10;1.00
5258;DHT22;2651;51.594;9.928;2023-12-29T03:30:27;9.10;1.00
5258;DHT22;2651;51.594;9.928;2023-12-29T03:31:28;9.10;1.00
5258;DHT22;2651;51.594;9.928;2023-12-29T03:32:30;9.10;1.00
5258;DHT22;2651;51.594;9.928;2023-12-29T03:33:32;9.10;1.00
5258;DHT22;2651;51.594;9.928;2023-12-29T03:34:34;9.20;1.00
5258;DHT22;2651;51.594;9.928;2023-12-29T03:35:35;9.20;1.00
5258;DHT22;2651;51.594;9.928;2023-12-29T03:36:37;9.20;1.00
5258;DHT22;2651;51.594;9.928;2023-12-29T03:37:39;9.20;1.00
5258;DHT22;2651;51.594;9.928;2023-12-29T03:38:41;9.10;1.00
5258;DHT22;2651;51.594;9.928;2023-12-29T03:39:43;9.10;1.00
5258;DHT22;2651;51.594;9.928;2023-12-29T03:40:45;9.10;1.00
5258;DHT22;2651;51.594;9.928;2023-12-29T03:41:47;9.10;1.00
5258;DHT22;2651;51.594;9.928;2023-12-29T03:42:48;9.10;1.00
5258;DHT22;2651;51.594;9.928;2023-12-29T03:43:50;9.10;1.00
5258;DHT22;2651;51.594;9.928;2023-12-29T03:44:52;9.10;1.00
5258;DHT22;2651;51.594;9.928;2023-12-29T03:45:53;9.10;1.00
5258;DHT22;2651;51.594;9.928;2023-12-29T03:46:55;9.20;1.00
5258;DHT22;2651;51.594;9.928;2023-12-29T03:47:57;9.10;1.00
5258;DHT22;2651;51.594;9.928;2023-12-29T03:48:59;9.20;1.00
5258;DHT22;2651;51.594;9.928;2023-12-29T03:50:01;9.20;1.00
5258;DHT22;2651;51.594;9.928;2023-12-29T03:51:03;9.20;1.00
5258;DHT22;2651;51.594;9.928;2023-12-29T03:52:05;9.20;1.00
5258;DHT22;2651;51.594;9.928;2023-12-29T03:53:07;9.20;1.00
5258;DHT22;2651;51.594;9.928;2023-12-29T03:54:08;9.20;1.00
5258;DHT22;2651;51.594;9.928;2023-12-29T03:55:10;9.20;1.00
5258;DHT22;2651;51.594;9.928;2023-12-29T03:56:16;9.20;1.00
5258;DHT22;2651;51.594;9.928;2023-12-29T03:57:18;9.20;1.00
5258;DHT22;2651;51.594;9.928;2023-12-29T03:58:20;9.20;1.00
5258;DHT22;2651;51.594;9.928;2023-12-29T03:59:22;9.20;1.00
5258;DHT22;2651;51.594;9.928;2023-12-29T04:00:24;9.20;1.00
5258;DHT22;2651;51.594;9.928;2023-12-29T04:01:25;9.20;1.00
5258;DHT22;2651;51.594;9.928;2023-12-29T04:02:30;9.30;1.00
5258;DHT22;2651;51.594;9.928;2023-12-29T04:03:31;9.30;1.00
5258;DHT22;2651;51.594;9.928;2023-12-29T04:04:37;9.30;1.00
5258;DHT22;2651;51.594;9.928;2023-12-29T04:05:39;9.30;1.00
5258;DHT22;2651;51.594;9.928;2023-12-29T04:06:40;9.30;1.00
5258;DHT22;2651;51.594;9.928;2023-12-29T04:07:42;9.30;1.00
5258;DHT22;2651;51.594;9.928;2023-12-29T04:08:44;9.30;1.00
5258;DHT22;2651;51.594;9.928;2023-12-29T04:09:45;9.30;1.00
5258;DHT22;2651;51.594;9.928;2023-12-29T04:10:47;9.40;1.00
5258;DHT22;2651;51.594;9.928;2023-12-29T04:11:49;9.30;1.00
5258;DHT22;2651;51.594;9.928;2023-12-29T04:12:50;9.30;1.00
5258;DHT22;2651;51.594;9.928;2023-12-29T04:13:52;9.40;1.00
5258;DHT22;2651;51.594;9.928;2023-12-29T04:14:54;9.40;1.00
5258;DHT22;2651;51.594;9.928;2023-12-29T04:15:56;9.30;1.00
5258;DHT22;2651;51.594;9.928;2023-12-29T04:16:57;9.30;1.00
5258;DHT22;2651;51.594;9.928;2023-12-29T04:18:00;9.30;1.00
5258;DHT22;2651;51.594;9.928;2023-12-29T04:19:03;9.30;1.00
5258;DHT22;2651;51.594;9.928;2023-12-29T04:20:05;9.30;99.90
5258;DHT22;2651;51.594;9.928;2023-12-29T04:21:07;9.20;99.90
5258;DHT22;2651;51.594;9.928;2023-12-29T04:22:10;9.20;1.00
5258;DHT22;2651;51.594;9.928;2023-12-29T04:23:12;9.20;1.00
5258;DHT22;2651;51.594;9.928;2023-12-29T04:24:14;9.20;1.00
5258;DHT22;2651;51.594;9.928;2023-12-29T04:25:15;9.10;1.00
5258;DHT22;2651;51.594;9.928;2023-12-29T04:26:17;9.10;1.00
5258;DHT22;2651;51.594;9.928;2023-12-29T04:27:21;9.10;1.00
5258;DHT22;2651;51.594;9.928;2023-12-29T04:28:22;9.10;1.00
5258;DHT22;2651;51.594;9.928;2023-12-29T04:29:24;9.10;28.70
5258;DHT22;2651;51.594;9.928;2023-12-29T04:30:26;9.00;1.00
5258;DHT22;2651;51.594;9.928;2023-12-29T04:31:27;9.00;1.00
5258;DHT22;2651;51.594;9.928;2023-12-29T04:32:29;9.00;1.00
5258;DHT22;2651;51.594;9.928;2023-12-29T04:33:31;9.00;1.00
5258;DHT22;2651;51.594;9.928;2023-12-29T04:34:33;9.00;99.90
5258;DHT22;2651;51.594;9.928;2023-12-29T04:35:35;9.00;92.00
5258;DHT22;2651;51.594;9.928;2023-12-29T04:36:37;9.00;1.00
5258;DHT22;2651;51.594;9.928;2023-12-29T04:37:39;9.00;1.00
5258;DHT22;2651;51.594;9.928;2023-12-29T04:38:41;9.00;1.00
5258;DHT22;2651;51.594;9.928;2023-12-29T04:39:42;9.00;1.00
5258;DHT22;2651;51.594;9.928;2023-12-29T04:40:45;9.00;1.00
5258;DHT22;2651;51.594;9.928;2023-12-29T04:41:47;9.00;1.00
5258;DHT22;2651;51.594;9.928;2023-12-29T04:42:48;9.00;1.00
5258;DHT22;2651;51.594;9.928;2023-12-29T04:43:50;9.00;1.00
5258;DHT22;2651;51.594;9.928;2023-12-29T04:44:52;9.00;1.00
5258;DHT22;2651;51.594;9.928;2023-12-29T04:45:54;9.00;1.00
5258;DHT22;2651;51.594;9.928;2023-12-29T04:46:55;9.00;99.90
5258;DHT22;2651;51.594;9.928;2023-12-29T04:47:57;9.00;1.00
5258;DHT22;2651;51.594;9.928;2023-12-29T04:48:59;9.00;1.00
5258;DHT22;2651;51.594;9.928;2023-12-29T04:50:01;9.00;1.00
5258;DHT22;2651;51.594;9.928;2023-12-29T04:51:03;9.00;1.00
5258;DHT22;2651;51.594;9.928;2023-12-29T04:52:05;9.00;99.90
5258;DHT22;2651;51.594;9.928;2023-12-29T04:53:07;9.00;99.90
5258;DHT22;2651;51.594;9.928;2023-12-29T04:54:08;9.00;1.00
5258;DHT22;2651;51.594;9.928;2023-12-29T04:55:10;9.00;1.00
5258;DHT22;2651;51.594;9.928;2023-12-29T04:56:13;9.00;1.00
5258;DHT22;2651;51.594;9.928;2023-12-29T04:57:14;9.10;99.90
5258;DHT22;2651;51.594;9.928;2023-12-29T04:58:16;9.10;99.90
5258;DHT22;2651;51.594;9.928;2023-12-29T04:59:18;9.10;99.90
5258;DHT22;2651;51.594;9.928;2023-12-29T05:00:19;9.10;99.90
5258;DHT22;2651;51.594;9.928;2023-12-29T05:01:21;9.10;99.90
5258;DHT22;2651;51.594;9.928;2023-12-29T05:02:23;9.10;99.90
5258;DHT22;2651;51.594;9.928;2023-12-29T05:03:25;9.10;99.90
5258;DHT22;2651;51.594;9.928;2023-12-29T05:04:27;9.10;1.00
5258;DHT22;2651;51.594;9.928;2023-12-29T05:05:28;9.10;1.00
5258;DHT22;2651;51.594;9.928;2023-12-29T05:06:30;9.00;1.00
5258;DHT22;2651;51.594;9.928;2023-12-29T05:07:32;9.00;1.00
5258;DHT22;2651;51.594;9.928;2023-12-29T05:08:33;9.00;1.00
5258;DHT22;2651;51.594;9.928;2023-12-29T05:09:36;9.00;40.80
5258;DHT22;2651;51.594;9.928;2023-12-29T05:10:38;9.00;1.00
5258;DHT22;2651;51.594;9.928;2023-12-29T05:11:39;9.00;1.00
5258;DHT22;2651;51.594;9.928;2023-12-29T05:12:41;9.00;99.90
5258;DHT22;2651;51.594;9.928;2023-12-29T05:13:43;8.90;99.90
5258;DHT22;2651;51.594;9.928;2023-12-29T05:14:45;8.90;99.90
5258;DHT22;2651;51.594;9.928;2023-12-29T05:15:47;8.90;99.90
5258;DHT22;2651;51.594;9.928;2023-12-29T05:16:49;8.90;1.00
5258;DHT22;2651;51.594;9.928;2023-12-29T05:17:50;8.90;1.00
5258;DHT22;2651;51.594;9.928;2023-12-29T05:18:52;8.90;99.90
5258;DHT22;2651;51.594;9.928;2023-12-29T05:19:54;8.90;99.90
5258;DHT22;2651;51.594;9.928;2023-12-29T05:20:56;8.90;1.00
5258;DHT22;2651;51.594;9.928;2023-12-29T05:21:57;8.90;1.00
5258;DHT22;2651;51.594;9.928;2023-12-29T05:22:59;8.90;1.00
5258;DHT22;2651;51.594;9.928;2023-12-29T05:24:01;8.90;1.00
5258;DHT22;2651;51.594;9.928;2023-12-29T05:25:02;8.90;1.00
5258;DHT22;2651;51.594;9.928;2023-12-29T05:26:05;8.90;1.00
5258;DHT22;2651;51.594;9.928;2023-12-29T05:27:06;8.90;1.00
5258;DHT22;2651;51.594;9.928;2023-12-29T05:28:08;8.90;99.90
5258;DHT22;2651;51.594;9.928;2023-12-29T05:29:10;8.90;6.30
5258;DHT22;2651;51.594;9.928;2023-12-29T05:30:12;8.90;1.00
5258;DHT22;2651;51.594;9.928;2023-12-29T05:31:14;8.90;1.00
5258;DHT22;2651;51.594;9.928;2023-12-29T05:32:15;8.90;1.00
5258;DHT22;2651;51.594;9.928;2023-12-29T05:33:17;8.90;1.00
5258;DHT22;2651;51.594;9.928;2023-12-29T05:34:19;9.00;99.90
5258;DHT22;2651;51.594;9.928;2023-12-29T05:35:21;8.90;99.90
5258;DHT22;2651;51.594;9.928;2023-12-29T05:36:22;9.00;99.90
5258;DHT22;2651;51.594;9.928;2023-12-29T05:37:24;9.00;99.90
5258;DHT22;2651;51.594;9.928;2023-12-29T05:38:26;9.00;99.90
5258;DHT22;2651;51.594;9.928;2023-12-29T05:39:27;9.00;33.30
5258;DHT22;2651;51.594;9.928;2023-12-29T05:40:30;9.00;1.00
5258;DHT22;2651;51.594;9.928;2023-12-29T05:41:32;9.00;1.00
5258;DHT22;2651;51.594;9.928;2023-12-29T05:42:34;9.00;1.00
5258;DHT22;2651;51.594;9.928;2023-12-29T05:43:35;9.10;1.00
5258;DHT22;2651;51.594;9.928;2023-12-29T05:44:37;9.10;1.00
5258;DHT22;2651;51.594;9.928;2023-12-29T05:45:39;9.10;1.00
5258;DHT22;2651;51.594;9.928;2023-12-29T05:46:40;9.10;1.00
5258;DHT22;2651;51.594;9.928;2023-12-29T05:47:42;9.10;1.00
5258;DHT22;2651;51.594;9.928;2023-12-29T05:48:44;9.10;1.00
5258;DHT22;2651;51.594;9.928;2023-12-29T05:49:46;9.10;1.00
5258;DHT22;2651;51.594;9.928;2023-12-29T05:50:48;9.10;99.90
5258;DHT22;2651;51.594;9.928;2023-12-29T05:51:50;9.10;99.90
5258;DHT22;2651;51.594;9.928;2023-12-29T05:52:51;9.00;1.00
5258;DHT22;2651;51.594;9.928;2023-12-29T05:53:53;9.00;1.00
5258;DHT22;2651;51.594;9.928;2023-12-29T05:54:55;9.00;99.90
5258;DHT22;2651;51.594;9.928;2023-12-29T05:55:56;9.00;1.00
5258;DHT22;2651;51.594;9.928;2023-12-29T05:56:58;9.00;99.90
5258;DHT22;2651;51.594;9.928;2023-12-29T05:58:00;9.00;99.90
5258;DHT22;2651;51.594;9.928;2023-12-29T05:59:02;9.00;99.90
5258;DHT22;2651;51.594;9.928;2023-12-29T06:00:04;9.00;99.90
5258;DHT22;2651;51.594;9.928;2023-12-29T06:01:06;9.00;99.90
5258;DHT22;2651;51.594;9.928;2023-12-29T06:02:08;9.00;4.80
5258;DHT22;2651;51.594;9.928;2023-12-29T06:03:09;9.00;61.40
5258;DHT22;2651;51.594;9.928;2023-12-29T06:04:11;9.00;99.90
5258;DHT22;2651;51.594;9.928;2023-12-29T06:05:14;9.00;16.10
5258;DHT22;2651;51.594;9.928;2023-12-29T06:06:16;9.00;1.00
5258;DHT22;2651;51.594;9.928;2023-12-29T06:07:18;9.00;99.90
5258;DHT22;2651;51.594;9.928;2023-12-29T06:08:19;8.90;88.00
5258;DHT22;2651;51.594;9.928;2023-12-29T06:09:21;8.90;1.00
5258;DHT22;2651;51.594;9.928;2023-12-29T06:10:22;8.90;1.00
5258;DHT22;2651;51.594;9.928;2023-12-29T06:11:25;8.90;1.00
5258;DHT22;2651;51.594;9.928;2023-12-29T06:12:27;8.90;1.00
5258;DHT22;2651;51.594;9.928;2023-12-29T06:13:28;8.90;1.00
5258;DHT22;2651;51.594;9.928;2023-12-29T06:14:31;8.90;1.00
5258;DHT22;2651;51.594;9.928;2023-12-29T06:15:32;8.90;1.00
5258;DHT22;2651;51.594;9.928;2023-12-29T06:16:34;8.90;1.00
5258;DHT22;2651;51.594;9.928;2023-12-29T06:17:36;8.90;1.00
5258;DHT22;2651;51.594;9.928;2023-12-29T06:18:38;8.90;1.00
5258;DHT22;2651;51.594;9.928;2023-12-29T06:19:39;8.90;1.00
5258;DHT22;2651;51.594;9.928;2023-12-29T06:20:41;8.90;1.00
5258;DHT22;2651;51.594;9.928;2023-12-29T06:21:43;8.90;1.00
5258;DHT22;2651;51.594;9.928;2023-12-29T06:22:46;8.90;1.00
5258;DHT22;2651;51.594;9.928;2023-12-29T06:23:48;8.90;1.00
5258;DHT22;2651;51.594;9.928;2023-12-29T06:24:50;8.90;1.00
5258;DHT22;2651;51.594;9.928;2023-12-29T06:25:51;8.90;1.00
5258;DHT22;2651;51.594;9.928;2023-12-29T06:26:53;8.90;1.00
5258;DHT22;2651;51.594;9.928;2023-12-29T06:27:55;8.90;1.00
5258;DHT22;2651;51.594;9.928;2023-12-29T06:28:56;8.90;1.00
5258;DHT22;2651;51.594;9.928;2023-12-29T06:29:58;8.90;1.00
5258;DHT22;2651;51.594;9.928;2023-12-29T06:31:00;8.90;1.00
5258;DHT22;2651;51.594;9.928;2023-12-29T06:32:02;8.90;1.00
5258;DHT22;2651;51.594;9.928;2023-12-29T06:33:04;8.90;1.00
5258;DHT22;2651;51.594;9.928;2023-12-29T06:34:06;8.90;1.00
5258;DHT22;2651;51.594;9.928;2023-12-29T06:35:08;8.90;1.00
5258;DHT22;2651;51.594;9.928;2023-12-29T06:36:12;8.90;1.00
5258;DHT22;2651;51.594;9.928;2023-12-29T06:37:14;8.90;1.00
5258;DHT22;2651;51.594;9.928;2023-12-29T06:38:16;9.00;1.00
5258;DHT22;2651;51.594;9.928;2023-12-29T06:39:17;9.00;1.00
5258;DHT22;2651;51.594;9.928;2023-12-29T06:40:19;9.00;1.00
5258;DHT22;2651;51.594;9.928;2023-12-29T06:41:21;9.00;99.90
5258;DHT22;2651;51.594;9.928;2023-12-29T06:42:22;9.00;99.90
5258;DHT22;2651;51.594;9.928;2023-12-29T06:43:24;9.00;1.00
5258;DHT22;2651;51.594;9.928;2023-12-29T06:44:26;8.90;1.00
5258;DHT22;2651;51.594;9.928;2023-12-29T06:45:28;8.90;1.00
5258;DHT22;2651;51.594;9.928;2023-12-29T06:46:29;8.90;1.00
5258;DHT22;2651;51.594;9.928;2023-12-29T06:47:31;8.90;93.70
5258;DHT22;2651;51.594;9.928;2023-12-29T06:48:33;8.90;99.90
5258;DHT22;2651;51.594;9.928;2023-12-29T06:49:35;8.80;68.20
5258;DHT22;2651;51.594;9.928;2023-12-29T06:50:37;8.80;7.80
5258;DHT22;2651;51.594;9.928;2023-12-29T06:51:38;8.80;5.70
5258;DHT22;2651;51.594;9.928;2023-12-29T06:52:42;8.80;23.80
5258;DHT22;2651;51.594;9.928;2023-12-29T06:53:46;8.80;1.00
5258;DHT22;2651;51.594;9.928;2023-12-29T06:54:48;8.90;1.00
5258;DHT22;2651;51.594;9.928;2023-12-29T06:55:50;8.80;1.00
5258;DHT22;2651;51.594;9.928;2023-12-29T06:56:52;8.80;1.00
5258;DHT22;2651;51.594;9.928;2023-12-29T06:57:53;8.90;1.00
5258;DHT22;2651;51.594;9.928;2023-12-29T06:58:55;8.90;1.00
5258;DHT22;2651;51.594;9.928;2023-12-29T06:59:57;8.90;1.00
5258;DHT22;2651;51.594;9.928;2023-12-29T07:00:59;8.90;1.00
5258;DHT22;2651;51.594;9.928;2023-12-29T07:02:01;8.80;1.00
5258;DHT22;2651;51.594;9.928;2023-12-29T07:03:03;8.80;1.00
5258;DHT22;2651;51.594;9.928;2023-12-29T07:04:05;8.80;1.00